createdAt,value
2019-02-26T00:02:46.713Z,20.63
2019-02-26T00:07:55.390Z,40.57
2019-02-26T00:13:02.561Z,19.47
2019-02-26T00:18:11.731Z,15.50
2019-02-26T00:23:19.812Z,24.20
2019-02-26T00:28:27.507Z,26.27
2019-02-26T00:33:34.542Z,24.03
2019-02-26T00:38:42.782Z,24.83
2019-02-26T00:43:53.133Z,32.37
2019-02-26T00:49:00.863Z,27.60
2019-02-26T00:54:08.297Z,24.10
2019-02-26T00:59:15.364Z,26.93
2019-02-26T01:04:22.463Z,20.47
2019-02-26T01:09:31.878Z,30.40
2019-02-26T01:14:41.202Z,30.00
2019-02-26T01:19:48.280Z,35.20
2019-02-26T01:24:56.291Z,30.90
2019-02-26T01:30:07.215Z,34.43
2019-02-26T01:35:15.356Z,23.60
2019-02-26T01:40:25.740Z,30.62
2019-02-26T01:45:33.579Z,30.33
2019-02-26T01:50:40.770Z,34.43
2019-02-26T01:55:50.552Z,29.80
2019-02-26T02:00:58.006Z,34.30
2019-02-26T02:06:06.666Z,34.53
2019-02-26T02:11:15.022Z,27.20
2019-02-26T02:16:24.098Z,28.90
2019-02-26T02:21:33.907Z,25.07
2019-02-26T02:26:45.283Z,29.67
2019-02-26T02:31:52.331Z,35.40
2019-02-26T02:36:59.634Z,25.73
2019-02-26T02:42:08.353Z,25.27
2019-02-26T02:47:15.931Z,32.13
2019-02-26T02:52:24.246Z,26.13
2019-02-26T02:57:32.657Z,27.77
2019-02-26T03:02:42.782Z,28.07
2019-02-26T03:07:51.635Z,26.80
2019-02-26T03:13:00.348Z,32.30
2019-02-26T03:18:09.893Z,31.17
2019-02-26T03:23:20.007Z,23.15
2019-02-26T03:28:26.171Z,25.10
2019-02-26T03:33:33.203Z,30.20
2019-02-26T03:38:40.892Z,27.80
2019-02-26T03:43:49.331Z,41.30
2019-02-26T03:48:56.521Z,26.70
2019-02-26T03:54:03.566Z,23.30
2019-02-26T03:59:11.930Z,21.30
2019-02-26T04:04:20.722Z,20.90
2019-02-26T04:09:28.687Z,19.53
2019-02-26T04:14:35.796Z,19.43
2019-02-26T04:19:44.519Z,22.80
2019-02-26T04:24:52.309Z,17.03
2019-02-26T04:30:16.277Z,24.53
2019-02-26T04:36:06.606Z,25.07
2019-02-26T04:41:35.989Z,23.53
2019-02-26T04:47:24.204Z,30.77
2019-02-26T04:52:32.396Z,22.90
2019-02-26T04:57:42.634Z,26.77
2019-02-26T05:02:48.791Z,26.27
2019-02-26T05:07:57.106Z,24.50
2019-02-26T05:13:06.683Z,30.87
2019-02-26T05:18:13.020Z,23.97
2019-02-26T05:23:20.595Z,26.05
2019-02-26T05:28:32.693Z,30.73
2019-02-26T05:33:37.924Z,29.87
2019-02-26T05:38:45.677Z,29.13
2019-02-26T05:43:57.881Z,26.20
2019-02-26T05:49:03.534Z,27.90
2019-02-26T05:54:12.233Z,32.03
2019-02-26T05:59:21.591Z,28.00
2019-02-26T06:04:29.037Z,32.53
2019-02-26T06:09:37.318Z,30.10
2019-02-26T06:14:45.643Z,27.90
2019-02-26T06:19:53.938Z,36.00
2019-02-26T06:25:04.185Z,27.33
2019-02-26T06:30:12.297Z,34.60
2019-02-26T06:35:19.594Z,27.93
2019-02-26T06:40:34.474Z,31.50
2019-02-26T06:45:41.057Z,32.13
2019-02-26T06:50:48.116Z,34.10
2019-02-26T06:55:58.553Z,31.70
2019-02-26T07:01:07.146Z,31.07
2019-02-26T07:06:18.476Z,26.12
2019-02-26T07:11:25.766Z,29.10
2019-02-26T07:16:32.941Z,41.70
2019-02-26T07:21:42.885Z,70.27
2019-02-26T07:26:51.327Z,54.40
2019-02-26T07:31:59.675Z,54.53
2019-02-26T07:37:08.829Z,62.43
2019-02-26T07:42:18.817Z,32.40
2019-02-26T07:47:28.877Z,28.93
2019-02-26T07:52:36.844Z,23.77
2019-02-26T07:57:47.968Z,21.73
2019-02-26T08:02:57.842Z,25.53
2019-02-26T08:08:07.250Z,23.77
2019-02-26T08:13:15.530Z,27.47
2019-02-26T08:18:23.816Z,20.90
2019-02-26T08:23:32.101Z,23.43
2019-02-26T08:28:41.953Z,19.47
2019-02-26T08:33:51.797Z,18.10
2019-02-26T08:39:00.246Z,17.23
2019-02-26T08:44:08.519Z,19.50
2019-02-26T08:49:17.996Z,15.97
2019-02-26T08:54:28.422Z,14.23
2019-02-26T08:59:36.683Z,11.03
2019-02-26T09:04:47.636Z,10.90
2019-02-26T09:09:57.282Z,11.10
2019-02-26T09:15:06.891Z,10.03
2019-02-26T09:20:16.156Z,11.13
2019-02-26T09:25:28.164Z,9.63
2019-02-26T09:30:35.910Z,9.13
2019-02-26T09:35:45.161Z,7.08
2019-02-26T09:40:54.599Z,8.63
2019-02-26T09:46:01.731Z,7.27
2019-02-26T09:51:09.408Z,5.07
2019-02-26T09:56:17.528Z,5.33
2019-02-26T10:01:24.494Z,7.87
2019-02-26T10:06:31.476Z,5.87
2019-02-26T10:11:39.399Z,5.07
2019-02-26T10:16:50.082Z,9.20
2019-02-26T10:21:58.114Z,7.40
2019-02-26T10:27:08.402Z,8.37
2019-02-26T10:32:15.376Z,8.28
2019-02-26T10:37:22.564Z,4.37
2019-02-26T10:42:39.309Z,5.17
2019-02-26T10:47:38.260Z,4.10
2019-02-26T10:52:45.446Z,4.87
2019-02-26T10:57:55.135Z,8.10
2019-02-26T11:03:02.634Z,5.63
2019-02-26T11:08:09.763Z,5.97
2019-02-26T11:13:18.172Z,4.07
2019-02-26T11:18:25.555Z,4.80
2019-02-26T11:23:34.519Z,4.90
2019-02-26T11:28:43.587Z,4.50
2019-02-26T11:33:51.349Z,5.63
2019-02-26T11:39:01.258Z,7.33
2019-02-26T11:44:12.512Z,6.13
2019-02-26T11:49:19.269Z,6.93
2019-02-26T11:54:26.188Z,7.00
2019-02-26T11:59:35.576Z,11.80
2019-02-26T12:04:42.156Z,5.50
2019-02-26T12:09:49.330Z,7.60
2019-02-26T12:14:56.409Z,5.83
2019-02-26T12:20:03.480Z,7.33
2019-02-26T12:25:11.248Z,5.50
2019-02-26T12:30:20.672Z,6.27
2019-02-26T12:35:29.667Z,4.67
2019-02-26T12:40:41.131Z,4.97
2019-02-26T12:45:46.888Z,6.33
2019-02-26T12:50:55.610Z,5.10
2019-02-26T12:56:05.788Z,7.10
2019-02-26T13:01:12.011Z,7.90
2019-02-26T13:06:22.817Z,4.08
2019-02-26T13:11:31.024Z,6.85
2019-02-26T13:16:42.473Z,4.78
2019-02-26T13:21:51.778Z,6.03
2019-02-26T13:26:59.942Z,7.45
2019-02-26T13:32:09.031Z,5.72
2019-02-26T13:37:16.571Z,6.08
2019-02-26T13:42:23.759Z,5.80
2019-02-26T13:47:30.988Z,6.10
2019-02-26T13:52:39.255Z,2.65
2019-02-26T13:57:46.382Z,3.70
2019-02-26T14:02:54.628Z,4.05
2019-02-26T14:08:02.363Z,4.33
2019-02-26T14:13:09.408Z,4.87
2019-02-26T14:18:16.688Z,5.00
2019-02-26T14:23:25.029Z,4.35
2019-02-26T14:28:33.333Z,8.93
2019-02-26T14:33:40.508Z,7.17
2019-02-26T14:38:47.904Z,5.55
2019-02-26T14:43:55.123Z,5.22
2019-02-26T14:49:02.211Z,4.60
2019-02-26T14:54:09.551Z,3.25
2019-02-26T14:59:16.768Z,4.22
2019-02-26T15:04:23.817Z,5.55
2019-02-26T15:09:31.121Z,3.00
2019-02-26T15:14:38.307Z,5.60
2019-02-26T15:19:49.631Z,4.78
2019-02-26T15:24:54.179Z,4.05
2019-02-26T15:30:01.368Z,6.10
2019-02-26T15:35:08.930Z,3.35
2019-02-26T15:40:17.616Z,5.67
2019-02-26T15:45:24.712Z,8.20
2019-02-26T15:50:32.891Z,7.10
2019-02-26T15:55:41.087Z,6.40
2019-02-26T16:00:48.188Z,7.40
2019-02-26T16:05:55.272Z,8.17
2019-02-26T16:11:02.533Z,9.17
2019-02-26T16:16:09.627Z,4.27
2019-02-26T16:21:19.321Z,5.20
2019-02-26T16:26:26.486Z,3.73
2019-02-26T16:31:33.771Z,6.13
2019-02-26T16:36:41.004Z,5.83
2019-02-26T16:41:48.141Z,12.00
2019-02-26T16:46:55.339Z,5.80
2019-02-26T16:52:02.859Z,6.53
2019-02-26T16:57:10.126Z,8.83
2019-02-26T17:02:17.519Z,8.15
2019-02-26T17:07:24.674Z,9.87
2019-02-26T17:12:31.922Z,11.50
2019-02-26T17:17:39.015Z,8.43
2019-02-26T17:22:46.068Z,8.10
2019-02-26T17:27:53.214Z,7.67
2019-02-26T17:33:00.542Z,9.07
2019-02-26T17:38:08.054Z,8.47
2019-02-26T17:43:15.240Z,9.65
2019-02-26T17:48:22.502Z,8.45
2019-02-26T17:53:29.860Z,8.63
2019-02-26T17:58:37.243Z,16.30
2019-02-26T18:03:45.297Z,16.00
2019-02-26T18:08:56.164Z,13.33
2019-02-26T18:14:02.343Z,20.43
2019-02-26T18:19:12.242Z,12.63
2019-02-26T18:24:18.252Z,11.00
2019-02-26T18:29:26.174Z,12.93
2019-02-26T18:34:33.334Z,12.83
2019-02-26T18:39:41.424Z,18.37
2019-02-26T18:44:48.653Z,47.40
2019-02-26T18:49:56.082Z,42.03
2019-02-26T18:55:03.271Z,130.60
2019-02-26T19:00:14.179Z,27.53
2019-02-26T19:05:23.731Z,23.67
2019-02-26T19:10:30.945Z,22.90
2019-02-26T19:15:38.351Z,16.13
2019-02-26T19:20:48.844Z,21.00
2019-02-26T19:25:54.263Z,22.03
2019-02-26T19:31:01.480Z,15.70
2019-02-26T19:36:10.608Z,9.57
2019-02-26T19:41:17.311Z,11.80
2019-02-26T19:46:27.078Z,18.77
2019-02-26T19:51:34.847Z,18.23
2019-02-26T19:56:41.967Z,15.80
2019-02-26T20:01:49.180Z,18.33
2019-02-26T20:06:58.493Z,16.40
2019-02-26T20:12:07.200Z,17.47
2019-02-26T20:17:14.933Z,11.03
2019-02-26T20:22:22.207Z,21.57
2019-02-26T20:27:30.289Z,8.50
2019-02-26T20:32:37.369Z,7.77
2019-02-26T20:37:44.565Z,15.20
2019-02-26T20:42:51.712Z,37.53
2019-02-26T20:47:58.801Z,9.33
2019-02-26T20:53:06.574Z,22.27
2019-02-26T20:58:14.213Z,44.17
2019-02-26T21:03:21.508Z,104.55
2019-02-26T21:08:31.104Z,29.90
2019-02-26T21:13:38.306Z,30.53
2019-02-26T21:18:45.355Z,17.43
2019-02-26T21:23:52.656Z,12.77
2019-02-26T21:28:59.713Z,18.47
2019-02-26T21:34:06.880Z,19.90
2019-02-26T21:39:14.074Z,14.63
2019-02-26T21:44:21.646Z,10.10
2019-02-26T21:49:28.723Z,12.40
2019-02-26T21:54:35.953Z,10.43
2019-02-26T21:59:49.850Z,13.43
2019-02-26T22:04:52.209Z,14.13
2019-02-26T22:09:59.292Z,12.57
2019-02-26T22:15:09.955Z,11.33
2019-02-26T22:20:22.097Z,13.73
2019-02-26T22:25:24.703Z,16.93
2019-02-26T22:30:31.786Z,28.30
2019-02-26T22:35:39.039Z,15.83
2019-02-26T22:40:46.132Z,14.93
2019-02-26T22:45:53.316Z,18.17
2019-02-26T22:51:00.400Z,12.73
2019-02-26T22:56:07.609Z,18.13
2019-02-26T23:01:30.516Z,16.40
2019-02-26T23:06:38.147Z,21.47
2019-02-26T23:11:45.971Z,12.97
2019-02-26T23:16:54.368Z,15.33
2019-02-26T23:22:01.580Z,18.30
2019-02-26T23:27:09.461Z,11.13
2019-02-26T23:32:17.978Z,14.73
2019-02-26T23:37:26.000Z,23.77
2019-02-26T23:42:33.167Z,17.67
2019-02-26T23:47:40.378Z,16.37
2019-02-26T23:52:47.464Z,18.77
2019-02-26T23:57:57.669Z,22.67
